createdAt,value
2022-10-27T00:00:37.906Z,102396.72
2022-10-27T00:03:05.509Z,102405.56
2022-10-27T00:05:33.974Z,102409.97
2022-10-27T00:08:01.166Z,102400.00
2022-10-27T00:10:30.082Z,102406.91
2022-10-27T00:12:57.289Z,102414.44
2022-10-27T00:15:24.523Z,102408.91
2022-10-27T00:17:51.798Z,102412.13
2022-10-27T00:20:19.120Z,102409.81
2022-10-27T00:22:46.358Z,102421.44
2022-10-27T00:25:13.595Z,102423.06
2022-10-27T00:27:42.297Z,102423.91
2022-10-27T00:30:10.648Z,102418.78
2022-10-27T00:32:37.940Z,102424.44
2022-10-27T00:35:06.066Z,102423.28
2022-10-27T00:37:33.283Z,102436.06
2022-10-27T00:40:00.526Z,102443.25
2022-10-27T00:42:27.761Z,102442.81
2022-10-27T00:44:56.403Z,102456.06
2022-10-27T00:47:25.810Z,102460.81
2022-10-27T00:50:01.277Z,102458.56
2022-10-27T00:52:34.214Z,102460.09
2022-10-27T00:55:06.895Z,102473.78
2022-10-27T00:57:35.356Z,102473.81
2022-10-27T01:00:07.053Z,102478.66
2022-10-27T01:02:35.703Z,102493.38
2022-10-27T01:05:08.193Z,102494.97
2022-10-27T01:07:36.145Z,102503.28
2022-10-27T01:10:04.251Z,102510.34
2022-10-27T01:12:32.484Z,102511.03
2022-10-27T01:14:59.994Z,102513.47
2022-10-27T01:17:41.757Z,102511.88
2022-10-27T01:20:43.014Z,102505.06
2022-10-27T01:23:20.392Z,102513.31
2022-10-27T01:26:17.421Z,102503.75
2022-10-27T01:29:20.238Z,102496.69
2022-10-27T01:34:34.622Z,102499.19
2022-10-27T01:37:11.118Z,102499.97
2022-10-27T01:39:42.819Z,102501.22
2022-10-27T01:42:14.783Z,102497.69
2022-10-27T01:44:47.802Z,102491.72
2022-10-27T01:47:17.030Z,102505.72
2022-10-27T01:49:44.323Z,102500.19
2022-10-27T01:52:40.481Z,102496.25
2022-10-27T01:55:12.816Z,102498.66
2022-10-27T01:57:52.454Z,102504.00
2022-10-27T02:00:19.824Z,102509.09
2022-10-27T02:02:53.179Z,102510.63
2022-10-27T02:05:27.018Z,102513.44
2022-10-27T02:08:00.494Z,102518.88
2022-10-27T02:10:33.982Z,102528.06
2022-10-27T02:13:03.264Z,102524.13
2022-10-27T02:15:33.539Z,102528.97
2022-10-27T02:18:05.525Z,102529.34
2022-10-27T02:20:35.760Z,102528.16
2022-10-27T02:23:06.634Z,102530.16
2022-10-27T02:25:39.942Z,102536.25
2022-10-27T02:28:09.158Z,102535.47
2022-10-27T02:30:39.236Z,102537.16
2022-10-27T02:33:08.428Z,102539.41
2022-10-27T02:35:36.211Z,102544.28
2022-10-27T02:38:04.249Z,102545.22
2022-10-27T02:40:32.139Z,102546.47
2022-10-27T02:42:59.347Z,102538.91
2022-10-27T02:45:26.574Z,102542.13
2022-10-27T02:47:53.762Z,102555.34
2022-10-27T02:50:22.448Z,102563.34
2022-10-27T02:52:49.817Z,102572.19
2022-10-27T02:55:17.230Z,102584.53
2022-10-27T02:57:45.749Z,102591.75
2022-10-27T03:00:14.272Z,102591.72
2022-10-27T03:02:41.568Z,102607.38
2022-10-27T03:05:09.090Z,102613.34
2022-10-27T03:07:37.644Z,102624.09
2022-10-27T03:10:05.644Z,102636.94
2022-10-27T03:12:32.905Z,102643.69
2022-10-27T03:15:00.154Z,102654.06
2022-10-27T03:17:27.396Z,102655.72
2022-10-27T03:19:54.700Z,102664.13
2022-10-27T03:22:21.999Z,102684.13
2022-10-27T03:24:50.514Z,102681.25
2022-10-27T03:27:17.908Z,102690.47
2022-10-27T03:32:17.196Z,102702.88
2022-10-27T03:34:44.437Z,102711.66
2022-10-27T03:37:11.698Z,102720.09
2022-10-27T03:39:38.997Z,102725.28
2022-10-27T03:42:07.561Z,102733.31
2022-10-27T03:44:34.910Z,102745.31
2022-10-27T03:47:02.154Z,102748.16
2022-10-27T03:49:29.439Z,102759.72
2022-10-27T03:51:56.613Z,102766.84
2022-10-27T03:54:23.863Z,102771.59
2022-10-27T03:56:51.195Z,102771.63
2022-10-27T03:59:19.878Z,102779.56
2022-10-27T04:01:47.380Z,102790.41
2022-10-27T04:04:14.874Z,102793.22
2022-10-27T04:06:42.344Z,102800.41
2022-10-27T04:09:09.524Z,102809.56
2022-10-27T04:11:36.747Z,102815.97
2022-10-27T04:14:03.941Z,102815.56
2022-10-27T04:16:32.695Z,102816.41
2022-10-27T04:18:59.842Z,102816.38
2022-10-27T04:21:27.917Z,102820.44
2022-10-27T04:23:55.114Z,102828.44
2022-10-27T04:26:22.490Z,102826.81
2022-10-27T04:28:49.714Z,102828.44
2022-10-27T04:31:16.933Z,102836.44
2022-10-27T04:33:45.566Z,102831.66
2022-10-27T04:36:12.795Z,102835.66
2022-10-27T04:38:40.063Z,102854.41
2022-10-27T04:41:07.344Z,102853.59
2022-10-27T04:43:34.680Z,102845.19
2022-10-27T04:46:01.878Z,102859.59
2022-10-27T04:48:29.091Z,102857.97
2022-10-27T04:50:57.701Z,102849.16
2022-10-27T04:53:24.897Z,102846.75
2022-10-27T04:55:52.330Z,102843.56
2022-10-27T04:58:19.645Z,102843.59
2022-10-27T05:00:47.333Z,102838.81
2022-10-27T05:03:14.746Z,102836.81
2022-10-27T05:05:42.044Z,102834.00
2022-10-27T05:08:10.959Z,102837.22
2022-10-27T05:10:38.291Z,102841.59
2022-10-27T05:13:05.681Z,102843.63
2022-10-27T05:15:33.118Z,102839.63
2022-10-27T05:18:00.457Z,102846.81
2022-10-27T05:20:27.696Z,102842.84
2022-10-27T05:22:54.973Z,102840.06
2022-10-27T05:25:23.674Z,102841.22
2022-10-27T05:27:51.137Z,102836.06
2022-10-27T05:30:18.880Z,102836.47
2022-10-27T05:32:47.630Z,102835.72
2022-10-27T05:35:15.448Z,102835.75
2022-10-27T05:37:45.914Z,102842.16
2022-10-27T05:40:13.663Z,102848.16
2022-10-27T05:42:49.365Z,102853.34
2022-10-27T05:45:16.925Z,102856.56
2022-10-27T05:47:44.145Z,102852.19
2022-10-27T05:50:11.376Z,102860.97
2022-10-27T05:52:38.801Z,102873.31
2022-10-27T05:55:06.916Z,102877.31
2022-10-27T05:57:34.156Z,102889.25
2022-10-27T06:00:02.803Z,102894.84
2022-10-27T06:02:31.605Z,102908.41
2022-10-27T06:04:58.923Z,102907.19
2022-10-27T06:07:26.158Z,102914.81
2022-10-27T06:09:53.346Z,102920.38
2022-10-27T06:12:20.551Z,102920.38
2022-10-27T06:14:47.785Z,102928.38
2022-10-27T06:17:16.505Z,102912.38
2022-10-27T06:19:43.687Z,102921.19
2022-10-27T06:22:16.314Z,102915.56
2022-10-27T06:24:44.021Z,102918.78
2022-10-27T06:27:11.317Z,102903.94
2022-10-27T06:29:38.503Z,102901.97
2022-10-27T06:32:05.734Z,102897.16
2022-10-27T06:34:34.442Z,102885.97
2022-10-27T06:37:01.743Z,102866.00
2022-10-27T06:39:29.050Z,102859.19
2022-10-27T06:41:56.434Z,102846.78
2022-10-27T06:44:24.204Z,102837.63
2022-10-27T06:46:51.935Z,102832.75
2022-10-27T06:49:19.101Z,102821.97
2022-10-27T06:51:47.608Z,102807.59
2022-10-27T06:54:14.863Z,102802.03
2022-10-27T06:56:42.132Z,102792.84
2022-10-27T06:59:09.540Z,102774.81
2022-10-27T07:01:36.802Z,102768.44
2022-10-27T07:04:04.277Z,102756.44
2022-10-27T07:06:32.676Z,102748.06
2022-10-27T07:09:03.397Z,102731.25
2022-10-27T07:11:33.108Z,102718.44
2022-10-27T07:14:00.332Z,102706.06
2022-10-27T07:16:30.223Z,102699.72
2022-10-27T07:19:01.736Z,102693.28
2022-10-27T07:21:29.279Z,102677.69
2022-10-27T07:23:56.471Z,102673.25
2022-10-27T07:26:25.124Z,102666.88
2022-10-27T07:28:52.380Z,102660.44
2022-10-27T07:31:19.608Z,102658.03
2022-10-27T07:33:46.895Z,102644.41
2022-10-27T07:36:14.146Z,102637.97
2022-10-27T07:38:41.390Z,102635.06
2022-10-27T07:41:08.562Z,102619.41
2022-10-27T07:43:37.165Z,102605.72
2022-10-27T07:46:04.339Z,102600.94
2022-10-27T07:48:31.605Z,102588.00
2022-10-27T07:50:58.768Z,102579.09
2022-10-27T07:53:26.046Z,102567.03
2022-10-27T07:55:53.222Z,102555.69
2022-10-27T07:58:20.471Z,102532.31
2022-10-27T08:00:49.033Z,102523.28
2022-10-27T08:03:18.386Z,102505.56
2022-10-27T08:05:45.988Z,102495.81
2022-10-27T08:08:13.473Z,102473.91
2022-10-27T08:10:42.489Z,102460.13
2022-10-27T08:13:10.804Z,102443.81
2022-10-27T08:15:39.866Z,102428.88
2022-10-27T08:18:09.973Z,102407.66
2022-10-27T08:20:39.369Z,102394.97
2022-10-27T08:23:08.333Z,102377.25
2022-10-27T08:25:35.770Z,102356.00
2022-10-27T08:28:03.166Z,102341.41
2022-10-27T08:30:33.591Z,102323.88
2022-10-27T08:33:03.829Z,102321.25
2022-10-27T08:35:33.732Z,102301.72
2022-10-27T08:38:02.474Z,102291.38
2022-10-27T08:40:37.606Z,102289.00
2022-10-27T08:43:23.444Z,102265.44
2022-10-27T08:45:58.431Z,102253.31
2022-10-27T08:48:27.512Z,102240.94
2022-10-27T08:50:56.143Z,102248.97
2022-10-27T08:53:29.111Z,102243.88
2022-10-27T08:56:04.392Z,102232.28
2022-10-27T08:58:36.653Z,102227.97
2022-10-27T09:01:12.899Z,102223.78
2022-10-27T09:03:54.876Z,102228.03
2022-10-27T09:06:29.303Z,102215.59
2022-10-27T09:09:02.678Z,102208.66
2022-10-27T09:11:41.267Z,102217.03
2022-10-27T09:14:32.631Z,102206.81
2022-10-27T09:17:03.783Z,102210.50
2022-10-27T09:19:38.595Z,102212.63
2022-10-27T09:22:12.807Z,102202.78
2022-10-27T09:24:40.040Z,102202.91
2022-10-27T09:27:09.147Z,102202.31
2022-10-27T09:29:37.332Z,102210.66
2022-10-27T09:32:12.520Z,102208.91
2022-10-27T09:34:44.253Z,102201.88
2022-10-27T09:37:15.909Z,102198.81
2022-10-27T09:39:48.466Z,102194.56
2022-10-27T09:42:16.681Z,102193.84
2022-10-27T09:44:54.258Z,102185.72
2022-10-27T09:49:52.175Z,102187.59
2022-10-27T09:52:25.836Z,102184.53
2022-10-27T09:54:55.718Z,102190.25
2022-10-27T09:57:27.460Z,102202.88
2022-10-27T09:59:59.311Z,102207.59
2022-10-27T10:02:29.357Z,102210.34
2022-10-27T10:04:57.746Z,102214.44
2022-10-27T10:07:32.991Z,102215.34
2022-10-27T10:10:07.074Z,102224.34
2022-10-27T10:12:34.329Z,102231.84
2022-10-27T10:15:22.618Z,102225.44
2022-10-27T10:17:57.917Z,102221.84
2022-10-27T10:20:33.334Z,102210.31
2022-10-27T10:23:04.318Z,102211.09
2022-10-27T10:25:33.520Z,102217.19
2022-10-27T10:28:03.164Z,102214.22
2022-10-27T10:30:33.132Z,102215.81
2022-10-27T10:33:01.264Z,102221.16
2022-10-27T10:35:44.224Z,102234.25
2022-10-27T10:38:32.969Z,102230.72
2022-10-27T10:41:02.485Z,102226.53
2022-10-27T10:43:30.733Z,102211.91
2022-10-27T10:45:58.542Z,102225.56
2022-10-27T10:48:42.609Z,102219.69
2022-10-27T10:51:10.969Z,102220.53
2022-10-27T10:53:47.947Z,102211.84
2022-10-27T10:56:23.848Z,102211.84
2022-10-27T10:58:56.785Z,102201.19
2022-10-27T11:01:24.394Z,102205.81
2022-10-27T11:03:55.228Z,102198.97
2022-10-27T11:06:22.579Z,102203.06
2022-10-27T11:08:57.897Z,102201.78
2022-10-27T11:11:31.441Z,102202.47
2022-10-27T11:14:01.832Z,102195.72
2022-10-27T11:16:31.866Z,102190.06
2022-10-27T11:19:07.625Z,102195.38
2022-10-27T11:21:40.335Z,102195.16
2022-10-27T11:24:15.857Z,102189.63
2022-10-27T11:27:00.990Z,102182.19
2022-10-27T11:29:38.653Z,102189.03
2022-10-27T11:32:12.669Z,102187.22
2022-10-27T11:34:50.929Z,102176.09
2022-10-27T11:37:25.728Z,102173.03
2022-10-27T11:40:02.656Z,102162.09
2022-10-27T11:42:38.029Z,102152.75
2022-10-27T11:45:11.304Z,102151.50
2022-10-27T11:47:43.354Z,102162.19
2022-10-27T11:50:16.480Z,102142.22
2022-10-27T11:52:46.886Z,102138.59
2022-10-27T11:55:18.417Z,102127.69
2022-10-27T11:57:55.161Z,102124.22
2022-10-27T12:00:24.800Z,102120.69
2022-10-27T12:03:17.220Z,102111.22
2022-10-27T12:05:48.670Z,102106.47
2022-10-27T12:11:15.208Z,102114.09
2022-10-27T12:13:49.680Z,102117.84
2022-10-27T12:16:23.471Z,102116.44
2022-10-27T12:18:57.478Z,102126.03
2022-10-27T12:21:27.782Z,102124.22
2022-10-27T12:23:58.972Z,102112.94
2022-10-27T12:26:33.236Z,102112.78
2022-10-27T12:29:03.545Z,102111.75
2022-10-27T12:31:34.415Z,102092.28
2022-10-27T12:34:04.418Z,102090.28
2022-10-27T12:36:41.121Z,102085.78
2022-10-27T12:39:19.171Z,102091.31
2022-10-27T12:41:54.583Z,102086.88
2022-10-27T12:44:31.919Z,102087.94
2022-10-27T12:47:12.487Z,102100.03
2022-10-27T12:49:47.609Z,102080.50
2022-10-27T12:52:19.339Z,102074.69
2022-10-27T12:55:06.148Z,102067.34
2022-10-27T12:57:49.451Z,102070.75
2022-10-27T13:00:18.856Z,102067.50
2022-10-27T13:03:05.635Z,102061.00
2022-10-27T13:05:49.959Z,102053.38
2022-10-27T13:08:50.146Z,102055.34
2022-10-27T13:11:53.482Z,102053.50
2022-10-27T13:14:44.263Z,102050.06
2022-10-27T13:17:18.356Z,102051.03
2022-10-27T13:19:53.977Z,102059.56
2022-10-27T13:22:28.252Z,102060.88
2022-10-27T13:25:02.906Z,102044.44
2022-10-27T13:27:38.885Z,102030.31
2022-10-27T13:30:16.359Z,102030.13
2022-10-27T13:32:52.413Z,102026.75
2022-10-27T13:35:37.591Z,102016.38
2022-10-27T13:38:22.649Z,102003.50
2022-10-27T13:40:51.686Z,101993.88
2022-10-27T13:43:42.478Z,101993.34
2022-10-27T13:46:11.113Z,101990.09
2022-10-27T13:48:46.233Z,101980.94
2022-10-27T13:52:02.836Z,101993.78
2022-10-27T13:54:54.569Z,102014.50
2022-10-27T13:57:44.475Z,102011.13
2022-10-27T14:00:14.705Z,102004.47
2022-10-27T14:02:57.700Z,102004.75
2022-10-27T14:05:31.671Z,102000.56
2022-10-27T14:08:00.091Z,102015.88
2022-10-27T14:10:28.771Z,102011.16
2022-10-27T14:12:57.413Z,102017.06
2022-10-27T14:15:26.912Z,102018.56
2022-10-27T14:17:56.955Z,102019.13
2022-10-27T14:20:29.910Z,102015.81
2022-10-27T14:23:04.603Z,102016.66
2022-10-27T14:25:32.775Z,102014.28
2022-10-27T14:28:04.581Z,102005.72
2022-10-27T14:30:31.956Z,102008.50
2022-10-27T14:33:15.735Z,102000.53
2022-10-27T14:35:43.348Z,101990.44
2022-10-27T14:38:15.320Z,101985.59
2022-10-27T14:40:42.882Z,101978.50
2022-10-27T14:43:18.666Z,101982.13
2022-10-27T14:45:54.561Z,101972.50
2022-10-27T14:48:28.738Z,101964.44
2022-10-27T14:50:57.331Z,101972.63
2022-10-27T14:53:30.795Z,101964.78
2022-10-27T14:56:20.126Z,101944.53
2022-10-27T14:58:54.859Z,101941.50
2022-10-27T15:01:35.403Z,101937.47
2022-10-27T15:04:16.252Z,101950.41
2022-10-27T15:09:23.012Z,101950.09
2022-10-27T15:11:50.327Z,101949.31
2022-10-27T15:14:17.640Z,101953.97
2022-10-27T15:16:46.375Z,101946.94
2022-10-27T15:19:16.820Z,101938.63
2022-10-27T15:21:48.364Z,101942.91
2022-10-27T15:24:20.166Z,101930.41
2022-10-27T15:26:48.669Z,101926.38
2022-10-27T15:29:18.102Z,101915.09
2022-10-27T15:31:46.135Z,101910.06
2022-10-27T15:37:25.707Z,101906.66
2022-10-27T15:39:53.659Z,101898.50
2022-10-27T15:42:23.104Z,101883.31
2022-10-27T15:44:50.824Z,101883.00
2022-10-27T15:47:40.556Z,101870.94
2022-10-27T15:50:25.174Z,101870.94
2022-10-27T15:53:04.902Z,101864.97
2022-10-27T15:55:37.014Z,101850.06
2022-10-27T15:58:29.520Z,101834.66
2022-10-27T16:01:09.246Z,101828.09
2022-10-27T16:03:39.736Z,101830.13
2022-10-27T16:06:26.489Z,101834.19
2022-10-27T16:08:55.607Z,101828.72
2022-10-27T16:11:23.668Z,101835.47
2022-10-27T16:13:54.876Z,101835.78
2022-10-27T16:16:22.867Z,101840.31
2022-10-27T16:18:50.648Z,101837.66
2022-10-27T16:21:23.713Z,101832.00
2022-10-27T16:23:54.299Z,101834.38
2022-10-27T16:26:25.529Z,101837.97
2022-10-27T16:28:57.018Z,101825.25
2022-10-27T16:31:27.313Z,101819.75
2022-10-27T16:33:54.640Z,101813.50
2022-10-27T16:36:21.884Z,101813.94
2022-10-27T16:38:49.100Z,101816.63
2022-10-27T16:41:23.776Z,101802.03
2022-10-27T16:43:51.437Z,101811.28
2022-10-27T16:46:18.595Z,101812.84
2022-10-27T16:48:45.893Z,101811.59
2022-10-27T16:51:15.056Z,101816.94
2022-10-27T16:53:42.812Z,101822.41
2022-10-27T16:56:11.436Z,101810.69
2022-10-27T16:58:41.637Z,101811.75
2022-10-27T17:01:11.413Z,101797.34
2022-10-27T17:03:38.899Z,101797.81
2022-10-27T17:06:06.727Z,101785.91
2022-10-27T17:08:35.666Z,101792.16
2022-10-27T17:11:07.231Z,101787.16
2022-10-27T17:13:36.382Z,101783.09
2022-10-27T17:16:06.909Z,101789.50
2022-10-27T17:18:34.243Z,101795.47
2022-10-27T17:21:02.019Z,101781.81
2022-10-27T17:23:30.081Z,101782.16
2022-10-27T17:26:01.112Z,101765.69
2022-10-27T17:28:28.376Z,101755.50
2022-10-27T17:30:59.641Z,101756.41
2022-10-27T17:33:28.450Z,101766.44
2022-10-27T17:35:56.250Z,101753.59
2022-10-27T17:38:23.653Z,101749.38
2022-10-27T17:40:52.066Z,101763.94
2022-10-27T17:43:19.542Z,101762.66
2022-10-27T17:45:57.590Z,101764.72
2022-10-27T17:48:24.883Z,101751.88
2022-10-27T17:50:53.459Z,101755.78
2022-10-27T17:53:20.729Z,101755.31
2022-10-27T17:55:47.947Z,101748.88
2022-10-27T17:58:15.160Z,101759.25
2022-10-27T18:00:42.520Z,101757.66
2022-10-27T18:03:09.759Z,101759.81
2022-10-27T18:05:37.009Z,101762.66
2022-10-27T18:08:05.615Z,101757.94
2022-10-27T18:10:33.576Z,101767.69
2022-10-27T18:13:01.449Z,101764.53
2022-10-27T18:15:35.890Z,101769.69
2022-10-27T18:18:03.595Z,101773.31
2022-10-27T18:20:32.841Z,101773.47
2022-10-27T18:23:00.207Z,101780.03
2022-10-27T18:25:29.156Z,101780.47
2022-10-27T18:27:56.391Z,101778.56
2022-10-27T18:30:23.888Z,101774.00
2022-10-27T18:32:51.324Z,101782.94
2022-10-27T18:35:18.890Z,101778.69
2022-10-27T18:37:46.217Z,101792.63
2022-10-27T18:40:13.777Z,101776.63
2022-10-27T18:42:42.370Z,101776.00
2022-10-27T18:45:09.736Z,101777.06
2022-10-27T18:47:37.101Z,101780.38
2022-10-27T18:50:08.124Z,101791.91
2022-10-27T18:52:37.546Z,101794.28
2022-10-27T18:55:05.129Z,101801.63
2022-10-27T18:57:32.503Z,101797.84
2022-10-27T19:00:01.066Z,101802.84
2022-10-27T19:02:28.385Z,101796.88
2022-10-27T19:04:55.747Z,101803.13
2022-10-27T19:07:22.970Z,101804.22
2022-10-27T19:09:50.305Z,101816.72
2022-10-27T19:12:17.504Z,101821.25
2022-10-27T19:14:44.789Z,101831.28
2022-10-27T19:17:13.442Z,101839.88
2022-10-27T19:19:40.655Z,101844.38
2022-10-27T19:22:07.883Z,101854.97
2022-10-27T19:24:35.272Z,101851.88
2022-10-27T19:27:02.556Z,101857.63
2022-10-27T19:29:29.745Z,101868.56
2022-10-27T19:31:57.030Z,101868.69
2022-10-27T19:34:25.715Z,101885.38
2022-10-27T19:36:52.934Z,101889.56
2022-10-27T19:39:20.174Z,101900.28
2022-10-27T19:41:47.427Z,101910.00
2022-10-27T19:44:14.674Z,101912.47
2022-10-27T19:46:41.866Z,101918.09
2022-10-27T19:49:14.653Z,101924.38
2022-10-27T19:51:43.540Z,101924.38
2022-10-27T19:54:14.167Z,101928.56
2022-10-27T19:56:43.247Z,101935.13
2022-10-27T19:59:11.295Z,101939.94
2022-10-27T20:01:38.829Z,101936.88
2022-10-27T20:04:08.313Z,101937.81
2022-10-27T20:06:35.567Z,101938.72
2022-10-27T20:09:05.601Z,101947.75
2022-10-27T20:11:34.301Z,101947.06
2022-10-27T20:14:02.081Z,101951.38
2022-10-27T20:16:32.049Z,101949.91
2022-10-27T20:19:03.568Z,101953.16
2022-10-27T20:21:31.190Z,101954.06
2022-10-27T20:23:59.381Z,101968.59
2022-10-27T20:26:29.325Z,101962.19
2022-10-27T20:28:57.802Z,101962.28
2022-10-27T20:31:25.165Z,101967.81
2022-10-27T20:33:52.842Z,101971.88
2022-10-27T20:36:20.109Z,101973.88
2022-10-27T20:38:47.327Z,101971.06
2022-10-27T20:41:16.884Z,101982.78
2022-10-27T20:43:45.766Z,101973.78
2022-10-27T20:46:14.804Z,101968.94
2022-10-27T20:48:42.311Z,101982.31
2022-10-27T20:51:11.898Z,101989.19
2022-10-27T20:53:40.354Z,101981.75
2022-10-27T20:56:13.388Z,101996.03
2022-10-27T20:58:40.785Z,101996.84
2022-10-27T21:01:17.266Z,101994.91
2022-10-27T21:03:44.560Z,101994.72
2022-10-27T21:06:11.961Z,101988.84
2022-10-27T21:08:39.200Z,101979.28
2022-10-27T21:11:06.501Z,101972.75
2022-10-27T21:13:33.738Z,101966.34
2022-10-27T21:16:01.104Z,101965.44
2022-10-27T21:18:29.772Z,101955.09
2022-10-27T21:20:57.006Z,101954.53
2022-10-27T21:23:24.264Z,101950.25
2022-10-27T21:25:51.656Z,101945.75
2022-10-27T21:28:18.914Z,101950.25
2022-10-27T21:30:46.122Z,101947.78
2022-10-27T21:33:13.434Z,101941.81
2022-10-27T21:35:48.590Z,101940.81
2022-10-27T21:38:15.812Z,101941.34
2022-10-27T21:40:43.058Z,101938.34
2022-10-27T21:43:10.418Z,101948.22
2022-10-27T21:45:37.633Z,101941.63
2022-10-27T21:48:05.339Z,101954.31
2022-10-27T21:50:32.746Z,101954.31
2022-10-27T21:53:01.299Z,101943.97
2022-10-27T21:55:28.578Z,101950.28
2022-10-27T21:57:56.147Z,101959.06
2022-10-27T22:00:23.393Z,101969.63
2022-10-27T22:02:50.612Z,101973.63
2022-10-27T22:05:17.907Z,101972.88
2022-10-27T22:07:45.125Z,101966.22
2022-10-27T22:10:13.840Z,101962.66
2022-10-27T22:12:41.063Z,101984.78
2022-10-27T22:15:09.389Z,101979.63
2022-10-27T22:17:36.652Z,101981.28
2022-10-27T22:20:04.217Z,101982.19
2022-10-27T22:22:31.466Z,101988.47
2022-10-27T22:24:58.727Z,101983.75
2022-10-27T22:27:27.407Z,101989.59
2022-10-27T22:29:54.628Z,101989.59
2022-10-27T22:32:21.831Z,101993.19
2022-10-27T22:34:49.170Z,101994.34
2022-10-27T22:37:16.383Z,102000.84
2022-10-27T22:39:43.616Z,102003.09
2022-10-27T22:42:10.909Z,102008.06
2022-10-27T22:44:39.659Z,101999.50
2022-10-27T22:47:06.943Z,102003.75
2022-10-27T22:49:34.286Z,101999.59
2022-10-27T22:52:01.448Z,102005.44
2022-10-27T22:54:28.695Z,102012.19
2022-10-27T22:56:55.951Z,102010.50
2022-10-27T22:59:23.119Z,102008.91
2022-10-27T23:01:51.876Z,102007.22
2022-10-27T23:04:19.167Z,102005.66
2022-10-27T23:06:46.471Z,102012.75
2022-10-27T23:09:15.768Z,102013.56
2022-10-27T23:11:43.820Z,102009.53
2022-10-27T23:14:12.916Z,102014.47
2022-10-27T23:16:41.088Z,102018.63
2022-10-27T23:19:09.905Z,102021.06
2022-10-27T23:21:37.067Z,102022.38
2022-10-27T23:24:05.081Z,102022.94
2022-10-27T23:26:34.445Z,102026.28
2022-10-27T23:29:04.488Z,102038.84
2022-10-27T23:31:32.324Z,102038.16
2022-10-27T23:34:01.059Z,102048.25
2022-10-27T23:36:31.828Z,102056.34
2022-10-27T23:39:00.036Z,102063.50
2022-10-27T23:41:27.787Z,102064.41
2022-10-27T23:43:57.234Z,102073.28
2022-10-27T23:46:25.758Z,102076.16
2022-10-27T23:48:53.106Z,102076.63
2022-10-27T23:53:54.279Z,102086.59
2022-10-27T23:56:21.776Z,102094.84
2022-10-27T23:58:49.067Z,102092.13
